Weather observations for the past three days for
Pompano Beach, Pompano Beach Airpark
Metric (Imperial)
Date Time (edt) Wind (kph) Vis. (km) Weather Sky Cond. Temperature (ºC) Relative Humidity Wind Chill (°C) Heat Index (°C) Pressure Precipitation (cm)
Air Dwpt 6 hour altimeter (cm) sea level (mb) 1 hr 3 hr 6 hr
Max. Min.
08 20:53 E 11 16.09 Fair CLR 27.2 23.3 79% 30 76.05 1013.8
08 19:53 E 15 16.09 NULL NULL 27.8 23.3 31.1 27.8 77% 31 75.97 1013.1
08 18:53 E 17 16.09 Fair CLR 28.3 22.8 72% 32 75.95 1012.6
08 17:53 E 17 16.09 Fair CLR 29.4 23.3 70% 34 75.97 1012.8
08 16:53 E 20 16.09 Fair CLR 29.4 23.3 70% 34 75.97 1012.9
08 15:53 E 22 16.09 Fair CLR 30 22.8 65% 34 76.02 1013.7
08 14:53 E 22 16.09 Fair CLR 30.6 21.1 57% 33 76.07 1014.3
08 13:53 NE 20 16.09 Fair CLR 30.6 20.6 32.2 25 55% 33 76.1 1014.7
08 12:53 NE 20 16.09 Fair CLR 31.1 19.4 50% 33 76.17 1015.5
08 11:53 E 19 16.09 Fair CLR 31.1 19.4 50% 33 76.2 1015.9
08 10:53 N 6 16.09 Fair CLR 31.1 18.9 48% 32 76.23 1016.2
08 09:53 NW 15 16.09 Fair CLR 29.4 19.4 55% 31 76.2 1016.1
08 08:53 N 20 16.09 Fair CLR 27.2 19.4 62% 29 76.17 1015.8
08 07:53 NW 11 16.09 Fair CLR 25 18.9 27.2 23.3 69% 26 76.15 1015.3
08 06:53 NW 7 16.09 Fair CLR 23.3 19.4 79% 76.1 1014.5
08 05:53 NW 9 16.09 Fair CLR 23.3 19.4 79% 76.05 1013.8
08 04:53 NW 9 16.09 Fair CLR 23.9 20 79% 24 76.05 1013.8
08 03:53 NW 7 16.09 Fair CLR 24.4 21.7 85% 25 76.02 1013.6
08 02:53 W 7 16.09 Fair CLR 26.1 22.8 82% 28 76.05 1013.9
08 01:53 S 9 16.09 Fair CLR 26.7 22.2 28.3 26.7 76% 29 76.07 1014.3
08 00:53 S 13 16.09 Fair CLR 27.2 22.2 74% 30 76.1 1014.6
07 23:53 SE 13 16.09 Fair CLR 27.2 22.2 74% 30 76.12 1014.9
07 22:53 SE 11 16.09 Fair CLR 27.8 21.1 67% 30 76.12 1015.0
07 21:53 SE 9 16.09 Fair CLR 27.8 20.6 65% 30 76.1 1014.7
07 20:53 SE 13 16.09 Fair CLR 28.3 20 61% 30 76.1 1014.4
07 19:53 SE 20 16.09 Fair CLR 28.3 20 31.7 28.3 61% 30 76.07 1014.1
07 18:53 S 20 16.09 Fair CLR 29.4 20.6 59% 32 76.05 1013.9
07 17:53 SE 19 G 33 16.09 Fair CLR 30 19.4 53% 32 76.05 1013.8
07 16:53 SE 22 16.09 Fair CLR 30 20 55% 32 76.05 1013.8
07 15:53 SE 19 16.09 Fair CLR 31.1 21.1 55% 34 76.07 1014.2
07 14:53 SE 20 16.09 Fair CLR 31.1 21.1 55% 34 76.12 1014.8
07 13:53 SE 20 16.09 Fair CLR 31.1 21.1 31.7 25.6 55% 34 76.17 1015.6
07 12:53 SE 19 16.09 Fair CLR 31.1 21.1 55% 34 76.23 1016.1
07 11:53 SE 15 16.09 Fair CLR 30 21.1 59% 33 76.25 1016.8
07 10:53 SE 15 16.09 Fair CLR 29.4 21.1 61% 32 76.28 1017.1
07 09:53 SW 9 16.09 Fair CLR 28.9 20 59% 31 76.3 1017.2
07 08:53 S 9 16.09 Fair CLR 27.8 22.2 72% 30 76.28 1017.0
07 07:53 Calm 16.09 Fair CLR 25.6 21.1 25.6 22.2 76% 27 76.25 1016.7
07 06:53 Calm 16.09 Fair CLR 22.2 20 87% 76.17 1015.7
07 05:53 Calm 16.09 Fair CLR 22.2 19.4 84% 76.15 1015.1
07 04:53 Calm 16.09 Fair CLR 24.4 20 77% 25 76.12 1014.9
07 03:53 SE 9 16.09 Fair CLR 25 20 74% 26 76.12 1015.0
07 02:53 SE 11 16.09 Fair CLR 25 19.4 71% 26 76.15 1015.4
07 01:53 SE 9 16.09 Fair CLR 25 18.9 27.2 25 69% 26 76.2 1016.1
07 00:53 SE 11 16.09 Fair CLR 25 19.4 71% 26 76.25 1016.5
06 23:53 E 7 16.09 Fair CLR 25.6 19.4 69% 27 76.25 1016.7
06 22:53 E 13 16.09 Fair CLR 26.1 19.4 67% 27 76.28 1016.9
06 21:53 E 9 16.09 Fair CLR 26.7 18.9 62% 28 76.25 1016.7
06 20:53 E 11 16.09 Fair CLR 26.7 18.9 62% 28 76.25 1016.6
06 19:53 E 11 16.09 Fair CLR 27.2 18.3 29.4 27.2 58% 28 76.25 1016.5
06 18:53 E 15 16.09 Fair CLR 28.3 18.9 57% 30 76.23 1016.4
06 17:53 E 17 16.09 Fair CLR 28.9 18.9 55% 30 76.2 1015.9
06 16:53 E 15 16.09 Fair CLR 28.9 20.6 61% 31 76.17 1015.8
06 15:53 E 19 16.09 Fair CLR 28.3 21.7 67% 31 76.23 1016.2
06 14:53 E 17 16.09 Fair CLR 29.4 21.7 63% 32 76.28 1016.8
06 13:53 E 19 16.09 Fair CLR 28.9 22.2 28.9 26.1 67% 32 76.3 1017.2
06 12:53 E 15 16.09 Fair CLR 28.9 22.2 67% 32 76.33 1017.7
06 11:53 Vrbl 9 16.09 A Few Clouds FEW019 28.9 22.2 67% 32 76.33 1017.7
06 10:53 E 11 16.09 A Few Clouds FEW018 27.8 21.7 69% 30 76.33 1017.6
06 09:53 SE 15 16.09 A Few Clouds FEW020 27.8 22.2 72% 30 76.3 1017.2
06 08:53 SE 13 16.09 Fair CLR 26.7 21.7 74% 29 76.28 1016.9
06 07:53 E 11 16.09 Fair CLR 26.1 21.7 26.1 25 77% 28 76.25 1016.8
06 06:53 E 7 16.09 Fair CLR 25 21.7 82% 26 76.23 1016.1
06 05:53 E 9 16.09 A Few Clouds FEW017 25 21.7 82% 26 76.17 1015.7
06 04:53 E 11 16.09 Fair CLR 25 21.7 82% 26 76.15 1015.4
06 03:53 E 13 16.09 Fair CLR 25 21.7 82% 26 76.15 1015.3
06 02:53 E 15 16.09 A Few Clouds FEW017 25.6 21.7 79% 27 76.15 1015.4
06 01:53 E 15 16.09 Fair CLR 25.6 21.1 26.1 25.6 76% 27 76.17 1015.7
06 00:53 E 15 16.09 A Few Clouds FEW023 FEW070 25.6 21.1 76% 27 76.23 1016.2
05 23:53 E 13 16.09 Fair CLR 25.6 21.1 76% 27 76.23 1016.4
05 22:53 E 17 16.09 A Few Clouds FEW021 26.1 21.1 74% 28 76.23 1016.2
05 21:53 E 19 16.09 A Few Clouds FEW024 26.1 21.1 74% 28 76.17 1015.5
Date Time (edt) Wind (kph) Vis. (km) Weather Sky Cond. Air Dwpt Max. Min. Relative Humidity Wind Chill (°C) Heat Index (°C) altimeter (cm) sea level (mb) 1 hr 3 hr 6 hr
6 hour
Temperature (ºC) Pressure Precipitation (cm)